sensor_id;sensor_type;location;lat;lon;timestamp;P1;durP1;ratioP1;P2;durP2;ratioP2
13641;SDS011;6894;52.196;9.904;2023-08-06T00:00:27;3.80;;;3.07;;
13641;SDS011;6894;52.196;9.904;2023-08-06T00:02:54;3.13;;;2.83;;
13641;SDS011;6894;52.196;9.904;2023-08-06T00:05:20;3.27;;;2.80;;
13641;SDS011;6894;52.196;9.904;2023-08-06T00:07:47;4.87;;;2.50;;
13641;SDS011;6894;52.196;9.904;2023-08-06T00:10:14;4.07;;;2.30;;
13641;SDS011;6894;52.196;9.904;2023-08-06T00:12:42;4.10;;;2.90;;
13641;SDS011;6894;52.196;9.904;2023-08-06T00:15:09;5.57;;;2.53;;
13641;SDS011;6894;52.196;9.904;2023-08-06T00:17:37;5.60;;;2.57;;
13641;SDS011;6894;52.196;9.904;2023-08-06T00:20:04;3.50;;;2.70;;
13641;SDS011;6894;52.196;9.904;2023-08-06T00:22:32;3.30;;;3.00;;
13641;SDS011;6894;52.196;9.904;2023-08-06T00:24:59;3.50;;;3.03;;
13641;SDS011;6894;52.196;9.904;2023-08-06T00:27:26;3.43;;;2.80;;
13641;SDS011;6894;52.196;9.904;2023-08-06T00:29:54;3.40;;;3.00;;
13641;SDS011;6894;52.196;9.904;2023-08-06T00:32:21;5.73;;;3.03;;
13641;SDS011;6894;52.196;9.904;2023-08-06T00:34:48;5.80;;;2.50;;
13641;SDS011;6894;52.196;9.904;2023-08-06T00:37:15;3.43;;;3.13;;
13641;SDS011;6894;52.196;9.904;2023-08-06T00:39:42;3.53;;;3.23;;
13641;SDS011;6894;52.196;9.904;2023-08-06T00:42:09;3.93;;;2.80;;
13641;SDS011;6894;52.196;9.904;2023-08-06T00:44:36;2.93;;;2.70;;
13641;SDS011;6894;52.196;9.904;2023-08-06T00:47:05;4.20;;;3.20;;
13641;SDS011;6894;52.196;9.904;2023-08-06T00:49:33;3.70;;;3.40;;
13641;SDS011;6894;52.196;9.904;2023-08-06T00:52:00;3.70;;;3.27;;
13641;SDS011;6894;52.196;9.904;2023-08-06T00:54:28;3.33;;;3.00;;
13641;SDS011;6894;52.196;9.904;2023-08-06T00:56:55;5.27;;;3.33;;
13641;SDS011;6894;52.196;9.904;2023-08-06T00:59:22;4.43;;;3.23;;
13641;SDS011;6894;52.196;9.904;2023-08-06T01:01:49;6.53;;;4.07;;
13641;SDS011;6894;52.196;9.904;2023-08-06T01:04:18;7.27;;;3.77;;
13641;SDS011;6894;52.196;9.904;2023-08-06T01:06:46;7.00;;;3.70;;
13641;SDS011;6894;52.196;9.904;2023-08-06T01:09:19;7.23;;;4.40;;
13641;SDS011;6894;52.196;9.904;2023-08-06T01:11:58;7.13;;;3.97;;
13641;SDS011;6894;52.196;9.904;2023-08-06T01:14:33;5.77;;;4.13;;
13641;SDS011;6894;52.196;9.904;2023-08-06T01:17:10;6.17;;;3.70;;
13641;SDS011;6894;52.196;9.904;2023-08-06T01:19:39;8.63;;;3.67;;
13641;SDS011;6894;52.196;9.904;2023-08-06T01:22:08;3.83;;;3.53;;
13641;SDS011;6894;52.196;9.904;2023-08-06T01:24:34;5.70;;;2.80;;
13641;SDS011;6894;52.196;9.904;2023-08-06T01:27:03;6.37;;;3.67;;
13641;SDS011;6894;52.196;9.904;2023-08-06T01:29:35;4.07;;;3.33;;
13641;SDS011;6894;52.196;9.904;2023-08-06T01:32:07;4.63;;;2.90;;
13641;SDS011;6894;52.196;9.904;2023-08-06T01:34:36;4.07;;;2.80;;
13641;SDS011;6894;52.196;9.904;2023-08-06T01:37:08;3.47;;;3.17;;
13641;SDS011;6894;52.196;9.904;2023-08-06T01:39:35;3.10;;;2.80;;
13641;SDS011;6894;52.196;9.904;2023-08-06T01:42:02;4.20;;;2.60;;
13641;SDS011;6894;52.196;9.904;2023-08-06T01:44:30;4.90;;;2.60;;
13641;SDS011;6894;52.196;9.904;2023-08-06T01:46:56;3.03;;;2.30;;
13641;SDS011;6894;52.196;9.904;2023-08-06T01:49:23;3.40;;;2.20;;
13641;SDS011;6894;52.196;9.904;2023-08-06T01:51:50;4.93;;;3.20;;
13641;SDS011;6894;52.196;9.904;2023-08-06T01:54:18;3.80;;;2.77;;
13641;SDS011;6894;52.196;9.904;2023-08-06T01:56:45;4.60;;;3.17;;
13641;SDS011;6894;52.196;9.904;2023-08-06T01:59:11;4.37;;;3.20;;
13641;SDS011;6894;52.196;9.904;2023-08-06T02:01:38;3.43;;;2.93;;
13641;SDS011;6894;52.196;9.904;2023-08-06T02:04:05;5.10;;;2.70;;
13641;SDS011;6894;52.196;9.904;2023-08-06T02:06:31;5.03;;;2.83;;
13641;SDS011;6894;52.196;9.904;2023-08-06T02:08:58;4.13;;;3.57;;
13641;SDS011;6894;52.196;9.904;2023-08-06T02:11:26;4.97;;;2.77;;
13641;SDS011;6894;52.196;9.904;2023-08-06T02:13:53;6.43;;;3.20;;
13641;SDS011;6894;52.196;9.904;2023-08-06T02:16:20;3.37;;;2.70;;
13641;SDS011;6894;52.196;9.904;2023-08-06T02:18:46;3.70;;;2.90;;
13641;SDS011;6894;52.196;9.904;2023-08-06T02:21:13;4.07;;;2.73;;
13641;SDS011;6894;52.196;9.904;2023-08-06T02:23:40;6.27;;;3.20;;
13641;SDS011;6894;52.196;9.904;2023-08-06T02:26:07;4.97;;;3.37;;
13641;SDS011;6894;52.196;9.904;2023-08-06T02:28:35;4.13;;;3.57;;
13641;SDS011;6894;52.196;9.904;2023-08-06T02:31:01;3.90;;;3.50;;
13641;SDS011;6894;52.196;9.904;2023-08-06T02:33:28;4.27;;;3.70;;
13641;SDS011;6894;52.196;9.904;2023-08-06T02:36:01;3.80;;;3.50;;
13641;SDS011;6894;52.196;9.904;2023-08-06T02:38:29;4.50;;;2.77;;
13641;SDS011;6894;52.196;9.904;2023-08-06T02:40:56;3.57;;;2.97;;
13641;SDS011;6894;52.196;9.904;2023-08-06T02:43:23;4.67;;;2.60;;
13641;SDS011;6894;52.196;9.904;2023-08-06T02:45:51;4.73;;;3.40;;
13641;SDS011;6894;52.196;9.904;2023-08-06T02:48:17;5.57;;;3.50;;
13641;SDS011;6894;52.196;9.904;2023-08-06T02:50:44;4.27;;;3.17;;
13641;SDS011;6894;52.196;9.904;2023-08-06T02:53:11;3.77;;;2.83;;
13641;SDS011;6894;52.196;9.904;2023-08-06T02:55:38;4.50;;;2.93;;
13641;SDS011;6894;52.196;9.904;2023-08-06T02:58:12;4.87;;;3.53;;
13641;SDS011;6894;52.196;9.904;2023-08-06T03:00:39;5.50;;;3.23;;
13641;SDS011;6894;52.196;9.904;2023-08-06T03:03:07;7.00;;;3.70;;
13641;SDS011;6894;52.196;9.904;2023-08-06T03:05:34;4.27;;;3.43;;
13641;SDS011;6894;52.196;9.904;2023-08-06T03:08:00;6.70;;;3.53;;
13641;SDS011;6894;52.196;9.904;2023-08-06T03:10:27;4.10;;;3.10;;
13641;SDS011;6894;52.196;9.904;2023-08-06T03:12:54;5.20;;;3.30;;
13641;SDS011;6894;52.196;9.904;2023-08-06T03:15:21;2.63;;;2.43;;
13641;SDS011;6894;52.196;9.904;2023-08-06T03:17:47;5.70;;;3.73;;
13641;SDS011;6894;52.196;9.904;2023-08-06T03:20:15;6.13;;;3.50;;
13641;SDS011;6894;52.196;9.904;2023-08-06T03:22:42;3.80;;;3.03;;
13641;SDS011;6894;52.196;9.904;2023-08-06T03:25:09;9.10;;;3.23;;
13641;SDS011;6894;52.196;9.904;2023-08-06T03:27:36;9.50;;;3.90;;
13641;SDS011;6894;52.196;9.904;2023-08-06T03:30:03;3.07;;;2.60;;
13641;SDS011;6894;52.196;9.904;2023-08-06T03:32:30;6.40;;;3.53;;
13641;SDS011;6894;52.196;9.904;2023-08-06T03:34:57;3.83;;;3.53;;
13641;SDS011;6894;52.196;9.904;2023-08-06T03:37:25;4.77;;;3.63;;
13641;SDS011;6894;52.196;9.904;2023-08-06T03:39:51;5.83;;;4.30;;
13641;SDS011;6894;52.196;9.904;2023-08-06T03:42:18;4.87;;;3.97;;
13641;SDS011;6894;52.196;9.904;2023-08-06T03:44:45;3.73;;;3.37;;
13641;SDS011;6894;52.196;9.904;2023-08-06T03:47:12;4.47;;;4.07;;
13641;SDS011;6894;52.196;9.904;2023-08-06T03:49:39;6.53;;;4.93;;
13641;SDS011;6894;52.196;9.904;2023-08-06T03:52:06;4.50;;;4.10;;
13641;SDS011;6894;52.196;9.904;2023-08-06T03:54:34;5.53;;;4.27;;
13641;SDS011;6894;52.196;9.904;2023-08-06T03:57:01;5.40;;;3.70;;
13641;SDS011;6894;52.196;9.904;2023-08-06T03:59:28;4.33;;;3.80;;
13641;SDS011;6894;52.196;9.904;2023-08-06T04:01:55;4.90;;;3.33;;
13641;SDS011;6894;52.196;9.904;2023-08-06T04:04:22;3.97;;;3.03;;
13641;SDS011;6894;52.196;9.904;2023-08-06T04:06:48;4.77;;;3.30;;
13641;SDS011;6894;52.196;9.904;2023-08-06T04:09:15;5.23;;;3.07;;
13641;SDS011;6894;52.196;9.904;2023-08-06T04:11:43;5.37;;;3.20;;
13641;SDS011;6894;52.196;9.904;2023-08-06T04:14:10;5.67;;;3.40;;
13641;SDS011;6894;52.196;9.904;2023-08-06T04:16:37;4.17;;;3.80;;
13641;SDS011;6894;52.196;9.904;2023-08-06T04:19:03;4.97;;;3.90;;
13641;SDS011;6894;52.196;9.904;2023-08-06T04:21:30;5.67;;;4.20;;
13641;SDS011;6894;52.196;9.904;2023-08-06T04:23:57;5.00;;;4.30;;
13641;SDS011;6894;52.196;9.904;2023-08-06T04:26:24;4.87;;;3.73;;
13641;SDS011;6894;52.196;9.904;2023-08-06T04:28:52;5.17;;;4.10;;
13641;SDS011;6894;52.196;9.904;2023-08-06T04:31:18;7.83;;;4.33;;
13641;SDS011;6894;52.196;9.904;2023-08-06T04:33:45;6.43;;;4.97;;
13641;SDS011;6894;52.196;9.904;2023-08-06T04:36:12;4.40;;;4.00;;
13641;SDS011;6894;52.196;9.904;2023-08-06T04:38:39;7.17;;;4.20;;
13641;SDS011;6894;52.196;9.904;2023-08-06T04:41:09;8.10;;;4.83;;
13641;SDS011;6894;52.196;9.904;2023-08-06T04:43:36;6.73;;;5.13;;
13641;SDS011;6894;52.196;9.904;2023-08-06T04:46:05;6.17;;;5.00;;
13641;SDS011;6894;52.196;9.904;2023-08-06T04:48:31;5.27;;;4.00;;
13641;SDS011;6894;52.196;9.904;2023-08-06T04:50:58;8.00;;;4.00;;
13641;SDS011;6894;52.196;9.904;2023-08-06T04:53:25;4.20;;;3.50;;
13641;SDS011;6894;52.196;9.904;2023-08-06T04:55:52;5.80;;;3.80;;
13641;SDS011;6894;52.196;9.904;2023-08-06T04:58:18;5.70;;;4.13;;
13641;SDS011;6894;52.196;9.904;2023-08-06T05:00:45;4.97;;;4.47;;
13641;SDS011;6894;52.196;9.904;2023-08-06T05:03:13;5.80;;;4.97;;
13641;SDS011;6894;52.196;9.904;2023-08-06T05:05:40;5.17;;;4.37;;
13641;SDS011;6894;52.196;9.904;2023-08-06T05:08:07;4.80;;;4.40;;
13641;SDS011;6894;52.196;9.904;2023-08-06T05:10:41;5.13;;;4.53;;
13641;SDS011;6894;52.196;9.904;2023-08-06T05:13:08;6.87;;;5.37;;
13641;SDS011;6894;52.196;9.904;2023-08-06T05:15:35;5.50;;;4.83;;
13641;SDS011;6894;52.196;9.904;2023-08-06T05:18:02;5.00;;;4.20;;
13641;SDS011;6894;52.196;9.904;2023-08-06T05:20:30;9.13;;;4.73;;
13641;SDS011;6894;52.196;9.904;2023-08-06T05:22:57;10.53;;;4.93;;
13641;SDS011;6894;52.196;9.904;2023-08-06T05:25:24;7.93;;;4.40;;
13641;SDS011;6894;52.196;9.904;2023-08-06T05:27:50;5.60;;;5.00;;
13641;SDS011;6894;52.196;9.904;2023-08-06T05:30:18;6.20;;;5.60;;
13641;SDS011;6894;52.196;9.904;2023-08-06T05:32:45;6.13;;;5.47;;
13641;SDS011;6894;52.196;9.904;2023-08-06T05:35:11;7.57;;;4.73;;
13641;SDS011;6894;52.196;9.904;2023-08-06T05:37:40;6.50;;;4.90;;
13641;SDS011;6894;52.196;9.904;2023-08-06T05:40:07;5.43;;;4.90;;
13641;SDS011;6894;52.196;9.904;2023-08-06T05:42:34;5.90;;;5.30;;
13641;SDS011;6894;52.196;9.904;2023-08-06T05:45:01;6.50;;;4.93;;
13641;SDS011;6894;52.196;9.904;2023-08-06T05:47:27;8.93;;;5.93;;
13641;SDS011;6894;52.196;9.904;2023-08-06T05:49:54;5.37;;;4.73;;
13641;SDS011;6894;52.196;9.904;2023-08-06T05:52:21;5.07;;;4.67;;
13641;SDS011;6894;52.196;9.904;2023-08-06T05:54:49;6.23;;;5.40;;
13641;SDS011;6894;52.196;9.904;2023-08-06T05:57:16;5.70;;;4.60;;
13641;SDS011;6894;52.196;9.904;2023-08-06T05:59:43;5.47;;;4.57;;
13641;SDS011;6894;52.196;9.904;2023-08-06T06:02:09;5.70;;;4.43;;
13641;SDS011;6894;52.196;9.904;2023-08-06T06:04:36;4.07;;;3.70;;
13641;SDS011;6894;52.196;9.904;2023-08-06T06:07:03;4.70;;;4.27;;
13641;SDS011;6894;52.196;9.904;2023-08-06T06:09:30;5.53;;;4.33;;
13641;SDS011;6894;52.196;9.904;2023-08-06T06:11:58;4.50;;;3.37;;
13641;SDS011;6894;52.196;9.904;2023-08-06T06:14:25;6.60;;;3.97;;
13641;SDS011;6894;52.196;9.904;2023-08-06T06:16:52;5.00;;;3.67;;
13641;SDS011;6894;52.196;9.904;2023-08-06T06:19:19;9.07;;;4.47;;
13641;SDS011;6894;52.196;9.904;2023-08-06T06:21:46;5.80;;;3.67;;
13641;SDS011;6894;52.196;9.904;2023-08-06T06:24:12;3.93;;;3.50;;
13641;SDS011;6894;52.196;9.904;2023-08-06T06:26:39;5.33;;;3.50;;
13641;SDS011;6894;52.196;9.904;2023-08-06T06:29:07;3.43;;;3.13;;
13641;SDS011;6894;52.196;9.904;2023-08-06T06:31:34;4.07;;;2.87;;
13641;SDS011;6894;52.196;9.904;2023-08-06T06:34:00;6.57;;;3.93;;
13641;SDS011;6894;52.196;9.904;2023-08-06T06:36:27;2.63;;;2.30;;
13641;SDS011;6894;52.196;9.904;2023-08-06T06:38:54;3.60;;;2.80;;
13641;SDS011;6894;52.196;9.904;2023-08-06T06:41:21;3.87;;;2.90;;
13641;SDS011;6894;52.196;9.904;2023-08-06T06:43:47;6.63;;;3.40;;
13641;SDS011;6894;52.196;9.904;2023-08-06T06:46:15;5.67;;;3.67;;
13641;SDS011;6894;52.196;9.904;2023-08-06T06:48:42;3.90;;;2.90;;
13641;SDS011;6894;52.196;9.904;2023-08-06T06:51:09;7.27;;;2.97;;
13641;SDS011;6894;52.196;9.904;2023-08-06T06:53:35;7.53;;;2.80;;
13641;SDS011;6894;52.196;9.904;2023-08-06T06:56:03;2.33;;;2.10;;
13641;SDS011;6894;52.196;9.904;2023-08-06T06:58:31;4.00;;;2.30;;
13641;SDS011;6894;52.196;9.904;2023-08-06T07:00:58;2.40;;;2.20;;
13641;SDS011;6894;52.196;9.904;2023-08-06T07:03:26;3.13;;;2.00;;
13641;SDS011;6894;52.196;9.904;2023-08-06T07:05:56;8.90;;;2.97;;
13641;SDS011;6894;52.196;9.904;2023-08-06T07:08:23;5.43;;;2.50;;
13641;SDS011;6894;52.196;9.904;2023-08-06T07:10:50;3.47;;;2.70;;
13641;SDS011;6894;52.196;9.904;2023-08-06T07:13:17;4.47;;;2.37;;
13641;SDS011;6894;52.196;9.904;2023-08-06T07:15:43;3.00;;;2.37;;
13641;SDS011;6894;52.196;9.904;2023-08-06T07:18:10;3.30;;;2.30;;
13641;SDS011;6894;52.196;9.904;2023-08-06T07:20:38;2.10;;;1.80;;
13641;SDS011;6894;52.196;9.904;2023-08-06T07:23:05;3.83;;;2.10;;
13641;SDS011;6894;52.196;9.904;2023-08-06T07:25:32;4.27;;;2.13;;
13641;SDS011;6894;52.196;9.904;2023-08-06T07:27:58;1.97;;;1.50;;
13641;SDS011;6894;52.196;9.904;2023-08-06T07:30:27;2.27;;;2.00;;
13641;SDS011;6894;52.196;9.904;2023-08-06T07:32:54;2.80;;;1.60;;
13641;SDS011;6894;52.196;9.904;2023-08-06T07:35:21;1.80;;;1.70;;
13641;SDS011;6894;52.196;9.904;2023-08-06T07:37:49;1.50;;;1.40;;
13641;SDS011;6894;52.196;9.904;2023-08-06T07:40:15;2.77;;;1.57;;
13641;SDS011;6894;52.196;9.904;2023-08-06T07:42:42;1.83;;;1.30;;
13641;SDS011;6894;52.196;9.904;2023-08-06T07:45:09;1.23;;;1.13;;
13641;SDS011;6894;52.196;9.904;2023-08-06T07:47:36;1.87;;;1.20;;
13641;SDS011;6894;52.196;9.904;2023-08-06T07:50:03;1.93;;;1.60;;
13641;SDS011;6894;52.196;9.904;2023-08-06T07:52:30;1.63;;;1.53;;
13641;SDS011;6894;52.196;9.904;2023-08-06T07:54:58;2.27;;;1.40;;
13641;SDS011;6894;52.196;9.904;2023-08-06T07:57:26;1.43;;;1.33;;
13641;SDS011;6894;52.196;9.904;2023-08-06T07:59:53;2.37;;;1.60;;
13641;SDS011;6894;52.196;9.904;2023-08-06T08:02:20;3.23;;;2.03;;
13641;SDS011;6894;52.196;9.904;2023-08-06T08:04:46;1.97;;;1.60;;
13641;SDS011;6894;52.196;9.904;2023-08-06T08:07:13;5.23;;;1.80;;
13641;SDS011;6894;52.196;9.904;2023-08-06T08:09:40;2.17;;;1.40;;
13641;SDS011;6894;52.196;9.904;2023-08-06T08:12:08;2.03;;;1.60;;
13641;SDS011;6894;52.196;9.904;2023-08-06T08:14:35;2.57;;;1.67;;
13641;SDS011;6894;52.196;9.904;2023-08-06T08:17:02;1.53;;;1.20;;
13641;SDS011;6894;52.196;9.904;2023-08-06T08:19:29;2.07;;;1.50;;
13641;SDS011;6894;52.196;9.904;2023-08-06T08:21:56;2.90;;;1.50;;
13641;SDS011;6894;52.196;9.904;2023-08-06T08:24:23;1.80;;;1.40;;
13641;SDS011;6894;52.196;9.904;2023-08-06T08:26:50;2.33;;;1.27;;
13641;SDS011;6894;52.196;9.904;2023-08-06T08:29:19;1.40;;;1.20;;
13641;SDS011;6894;52.196;9.904;2023-08-06T08:31:46;1.93;;;1.27;;
13641;SDS011;6894;52.196;9.904;2023-08-06T08:34:14;1.37;;;1.10;;
13641;SDS011;6894;52.196;9.904;2023-08-06T08:36:41;2.10;;;1.30;;
13641;SDS011;6894;52.196;9.904;2023-08-06T08:39:07;3.40;;;1.90;;
13641;SDS011;6894;52.196;9.904;2023-08-06T08:41:35;1.50;;;1.40;;
13641;SDS011;6894;52.196;9.904;2023-08-06T08:44:03;2.47;;;1.33;;
13641;SDS011;6894;52.196;9.904;2023-08-06T08:46:35;1.63;;;1.40;;
13641;SDS011;6894;52.196;9.904;2023-08-06T08:49:03;3.43;;;1.60;;
13641;SDS011;6894;52.196;9.904;2023-08-06T08:51:30;1.40;;;1.30;;
13641;SDS011;6894;52.196;9.904;2023-08-06T08:53:58;2.63;;;1.40;;
13641;SDS011;6894;52.196;9.904;2023-08-06T08:56:25;1.50;;;1.40;;
13641;SDS011;6894;52.196;9.904;2023-08-06T08:58:52;3.57;;;1.80;;
13641;SDS011;6894;52.196;9.904;2023-08-06T09:01:20;1.80;;;1.50;;
13641;SDS011;6894;52.196;9.904;2023-08-06T09:03:49;3.23;;;1.70;;
13641;SDS011;6894;52.196;9.904;2023-08-06T09:06:17;2.23;;;1.40;;
13641;SDS011;6894;52.196;9.904;2023-08-06T09:08:47;1.30;;;1.20;;
13641;SDS011;6894;52.196;9.904;2023-08-06T09:11:20;1.30;;;1.20;;
13641;SDS011;6894;52.196;9.904;2023-08-06T09:13:47;1.87;;;1.33;;
13641;SDS011;6894;52.196;9.904;2023-08-06T09:16:14;2.30;;;1.40;;
13641;SDS011;6894;52.196;9.904;2023-08-06T09:18:41;1.93;;;1.50;;
13641;SDS011;6894;52.196;9.904;2023-08-06T09:21:14;3.63;;;1.53;;
13641;SDS011;6894;52.196;9.904;2023-08-06T09:23:41;1.50;;;1.40;;
13641;SDS011;6894;52.196;9.904;2023-08-06T09:26:11;1.20;;;1.10;;
13641;SDS011;6894;52.196;9.904;2023-08-06T09:28:38;1.60;;;1.37;;
13641;SDS011;6894;52.196;9.904;2023-08-06T09:31:08;1.63;;;1.40;;
13641;SDS011;6894;52.196;9.904;2023-08-06T09:33:35;2.47;;;1.60;;
13641;SDS011;6894;52.196;9.904;2023-08-06T09:36:09;1.60;;;1.50;;
13641;SDS011;6894;52.196;9.904;2023-08-06T09:38:41;1.80;;;1.53;;
13641;SDS011;6894;52.196;9.904;2023-08-06T09:41:08;3.03;;;1.33;;
13641;SDS011;6894;52.196;9.904;2023-08-06T09:43:39;1.20;;;1.10;;
13641;SDS011;6894;52.196;9.904;2023-08-06T09:46:11;1.40;;;1.30;;
13641;SDS011;6894;52.196;9.904;2023-08-06T09:48:40;2.30;;;1.40;;
13641;SDS011;6894;52.196;9.904;2023-08-06T09:51:10;1.52;;;1.15;;
13641;SDS011;6894;52.196;9.904;2023-08-06T09:53:40;1.33;;;1.20;;
13641;SDS011;6894;52.196;9.904;2023-08-06T09:56:08;1.45;;;1.23;;
13641;SDS011;6894;52.196;9.904;2023-08-06T09:58:36;1.42;;;1.17;;
13641;SDS011;6894;52.196;9.904;2023-08-06T10:01:05;2.28;;;1.40;;
13641;SDS011;6894;52.196;9.904;2023-08-06T10:03:33;1.20;;;1.00;;
13641;SDS011;6894;52.196;9.904;2023-08-06T10:06:01;1.40;;;1.30;;
13641;SDS011;6894;52.196;9.904;2023-08-06T10:08:32;2.45;;;1.02;;
13641;SDS011;6894;52.196;9.904;2023-08-06T10:11:00;5.15;;;1.33;;
13641;SDS011;6894;52.196;9.904;2023-08-06T10:13:29;1.50;;;1.33;;
13641;SDS011;6894;52.196;9.904;2023-08-06T10:15:56;1.27;;;1.17;;
13641;SDS011;6894;52.196;9.904;2023-08-06T10:18:23;1.98;;;1.20;;
13641;SDS011;6894;52.196;9.904;2023-08-06T10:20:51;3.03;;;1.45;;
13641;SDS011;6894;52.196;9.904;2023-08-06T10:23:18;1.40;;;1.15;;
13641;SDS011;6894;52.196;9.904;2023-08-06T10:25:46;1.50;;;1.20;;
13641;SDS011;6894;52.196;9.904;2023-08-06T10:28:23;2.10;;;1.10;;
13641;SDS011;6894;52.196;9.904;2023-08-06T10:31:00;1.92;;;1.10;;
13641;SDS011;6894;52.196;9.904;2023-08-06T10:33:29;1.98;;;1.10;;
13641;SDS011;6894;52.196;9.904;2023-08-06T10:36:07;2.83;;;1.30;;
13641;SDS011;6894;52.196;9.904;2023-08-06T10:38:35;1.52;;;1.20;;
13641;SDS011;6894;52.196;9.904;2023-08-06T10:41:14;1.10;;;1.00;;
13641;SDS011;6894;52.196;9.904;2023-08-06T10:43:44;1.33;;;1.17;;
13641;SDS011;6894;52.196;9.904;2023-08-06T10:46:21;2.65;;;1.20;;
13641;SDS011;6894;52.196;9.904;2023-08-06T10:48:49;1.63;;;0.90;;
13641;SDS011;6894;52.196;9.904;2023-08-06T10:51:16;1.30;;;1.20;;
13641;SDS011;6894;52.196;9.904;2023-08-06T10:53:44;1.85;;;1.00;;
13641;SDS011;6894;52.196;9.904;2023-08-06T10:56:12;2.25;;;1.25;;
13641;SDS011;6894;52.196;9.904;2023-08-06T10:58:39;2.00;;;1.20;;
13641;SDS011;6894;52.196;9.904;2023-08-06T11:01:07;1.35;;;1.23;;
13641;SDS011;6894;52.196;9.904;2023-08-06T11:03:34;1.98;;;1.30;;
13641;SDS011;6894;52.196;9.904;2023-08-06T11:06:02;1.23;;;1.13;;
13641;SDS011;6894;52.196;9.904;2023-08-06T11:08:32;1.42;;;1.08;;
13641;SDS011;6894;52.196;9.904;2023-08-06T11:11:07;1.80;;;0.93;;
13641;SDS011;6894;52.196;9.904;2023-08-06T11:13:36;1.13;;;0.75;;
13641;SDS011;6894;52.196;9.904;2023-08-06T11:16:03;1.83;;;1.20;;
13641;SDS011;6894;52.196;9.904;2023-08-06T11:18:32;1.70;;;1.10;;
13641;SDS011;6894;52.196;9.904;2023-08-06T11:20:59;0.75;;;0.75;;
13641;SDS011;6894;52.196;9.904;2023-08-06T11:23:26;1.20;;;0.95;;
13641;SDS011;6894;52.196;9.904;2023-08-06T11:25:54;1.10;;;1.05;;
13641;SDS011;6894;52.196;9.904;2023-08-06T11:28:21;1.35;;;1.02;;
13641;SDS011;6894;52.196;9.904;2023-08-06T11:30:48;1.42;;;0.98;;
13641;SDS011;6894;52.196;9.904;2023-08-06T11:33:19;1.35;;;0.88;;
13641;SDS011;6894;52.196;9.904;2023-08-06T11:35:48;1.67;;;1.30;;
13641;SDS011;6894;52.196;9.904;2023-08-06T11:38:15;1.50;;;1.20;;
13641;SDS011;6894;52.196;9.904;2023-08-06T11:40:43;1.65;;;1.05;;
13641;SDS011;6894;52.196;9.904;2023-08-06T11:43:10;1.20;;;1.10;;
13641;SDS011;6894;52.196;9.904;2023-08-06T11:45:38;0.88;;;0.88;;
13641;SDS011;6894;52.196;9.904;2023-08-06T11:48:05;1.50;;;1.15;;
13641;SDS011;6894;52.196;9.904;2023-08-06T11:50:35;1.33;;;1.23;;
13641;SDS011;6894;52.196;9.904;2023-08-06T11:53:04;1.55;;;1.02;;
13641;SDS011;6894;52.196;9.904;2023-08-06T11:55:31;1.17;;;1.02;;
13641;SDS011;6894;52.196;9.904;2023-08-06T11:57:59;1.30;;;1.13;;
13641;SDS011;6894;52.196;9.904;2023-08-06T12:00:29;3.45;;;1.52;;
13641;SDS011;6894;52.196;9.904;2023-08-06T12:02:56;2.08;;;1.20;;
13641;SDS011;6894;52.196;9.904;2023-08-06T12:05:24;1.58;;;1.20;;
13641;SDS011;6894;52.196;9.904;2023-08-06T12:07:57;1.52;;;1.15;;
13641;SDS011;6894;52.196;9.904;2023-08-06T12:10:27;1.67;;;1.02;;
13641;SDS011;6894;52.196;9.904;2023-08-06T12:12:55;1.40;;;1.13;;
13641;SDS011;6894;52.196;9.904;2023-08-06T12:15:22;3.05;;;1.02;;
13641;SDS011;6894;52.196;9.904;2023-08-06T12:17:49;1.20;;;0.98;;
13641;SDS011;6894;52.196;9.904;2023-08-06T12:20:16;1.73;;;1.20;;
13641;SDS011;6894;52.196;9.904;2023-08-06T12:22:42;1.25;;;1.10;;
13641;SDS011;6894;52.196;9.904;2023-08-06T12:25:11;1.15;;;1.05;;
13641;SDS011;6894;52.196;9.904;2023-08-06T12:27:40;1.25;;;1.10;;
13641;SDS011;6894;52.196;9.904;2023-08-06T12:30:08;2.15;;;1.35;;
13641;SDS011;6894;52.196;9.904;2023-08-06T12:32:36;2.17;;;0.90;;
13641;SDS011;6894;52.196;9.904;2023-08-06T12:35:03;1.17;;;0.95;;
13641;SDS011;6894;52.196;9.904;2023-08-06T12:37:32;1.17;;;1.13;;
13641;SDS011;6894;52.196;9.904;2023-08-06T12:39:59;2.15;;;0.90;;
13641;SDS011;6894;52.196;9.904;2023-08-06T12:42:26;1.25;;;1.15;;
13641;SDS011;6894;52.196;9.904;2023-08-06T12:44:54;1.17;;;1.08;;
13641;SDS011;6894;52.196;9.904;2023-08-06T12:47:21;5.38;;;1.20;;
13641;SDS011;6894;52.196;9.904;2023-08-06T12:49:47;2.05;;;1.10;;
13641;SDS011;6894;52.196;9.904;2023-08-06T12:52:15;1.42;;;1.20;;
13641;SDS011;6894;52.196;9.904;2023-08-06T12:54:42;1.20;;;1.00;;
13641;SDS011;6894;52.196;9.904;2023-08-06T12:57:11;1.95;;;1.02;;
13641;SDS011;6894;52.196;9.904;2023-08-06T12:59:38;1.20;;;1.10;;
13641;SDS011;6894;52.196;9.904;2023-08-06T13:02:06;1.98;;;1.30;;
13641;SDS011;6894;52.196;9.904;2023-08-06T13:04:33;1.40;;;0.98;;
13641;SDS011;6894;52.196;9.904;2023-08-06T13:07:00;1.58;;;1.20;;
13641;SDS011;6894;52.196;9.904;2023-08-06T13:09:27;1.60;;;1.50;;
13641;SDS011;6894;52.196;9.904;2023-08-06T13:11:54;1.85;;;1.50;;
13641;SDS011;6894;52.196;9.904;2023-08-06T13:14:21;1.88;;;1.60;;
13641;SDS011;6894;52.196;9.904;2023-08-06T13:16:48;2.42;;;1.45;;
13641;SDS011;6894;52.196;9.904;2023-08-06T13:19:16;1.88;;;1.55;;
13641;SDS011;6894;52.196;9.904;2023-08-06T13:21:58;2.72;;;1.40;;
13641;SDS011;6894;52.196;9.904;2023-08-06T13:24:26;2.45;;;1.58;;
13641;SDS011;6894;52.196;9.904;2023-08-06T13:26:53;2.63;;;1.48;;
13641;SDS011;6894;52.196;9.904;2023-08-06T13:29:20;1.92;;;1.45;;
13641;SDS011;6894;52.196;9.904;2023-08-06T13:31:47;2.22;;;1.35;;
13641;SDS011;6894;52.196;9.904;2023-08-06T13:34:15;1.73;;;1.40;;
13641;SDS011;6894;52.196;9.904;2023-08-06T13:36:42;1.23;;;1.13;;
13641;SDS011;6894;52.196;9.904;2023-08-06T13:39:09;1.80;;;1.60;;
13641;SDS011;6894;52.196;9.904;2023-08-06T13:41:37;1.90;;;1.80;;
13641;SDS011;6894;52.196;9.904;2023-08-06T13:44:04;1.35;;;1.25;;
13641;SDS011;6894;52.196;9.904;2023-08-06T13:46:31;1.88;;;1.42;;
13641;SDS011;6894;52.196;9.904;2023-08-06T13:48:58;2.30;;;1.50;;
13641;SDS011;6894;52.196;9.904;2023-08-06T13:51:26;1.60;;;1.45;;
13641;SDS011;6894;52.196;9.904;2023-08-06T13:53:53;3.42;;;1.73;;
13641;SDS011;6894;52.196;9.904;2023-08-06T13:56:22;2.25;;;1.60;;
13641;SDS011;6894;52.196;9.904;2023-08-06T13:58:49;1.88;;;1.73;;
13641;SDS011;6894;52.196;9.904;2023-08-06T14:01:17;2.17;;;1.67;;
13641;SDS011;6894;52.196;9.904;2023-08-06T14:03:44;2.97;;;1.85;;
13641;SDS011;6894;52.196;9.904;2023-08-06T14:06:11;1.83;;;1.73;;
13641;SDS011;6894;52.196;9.904;2023-08-06T14:08:39;1.65;;;1.55;;
13641;SDS011;6894;52.196;9.904;2023-08-06T14:11:06;3.13;;;2.00;;
13641;SDS011;6894;52.196;9.904;2023-08-06T14:13:32;1.80;;;1.63;;
13641;SDS011;6894;52.196;9.904;2023-08-06T14:15:59;2.47;;;1.60;;
13641;SDS011;6894;52.196;9.904;2023-08-06T14:18:26;1.85;;;1.67;;
13641;SDS011;6894;52.196;9.904;2023-08-06T14:20:53;2.60;;;1.60;;
13641;SDS011;6894;52.196;9.904;2023-08-06T14:23:19;3.07;;;2.13;;
13641;SDS011;6894;52.196;9.904;2023-08-06T14:25:48;1.77;;;1.30;;
13641;SDS011;6894;52.196;9.904;2023-08-06T14:28:14;2.63;;;1.87;;
13641;SDS011;6894;52.196;9.904;2023-08-06T14:30:41;3.90;;;2.07;;
13641;SDS011;6894;52.196;9.904;2023-08-06T14:33:08;2.35;;;1.67;;
13641;SDS011;6894;52.196;9.904;2023-08-06T14:35:35;2.72;;;1.77;;
13641;SDS011;6894;52.196;9.904;2023-08-06T14:38:01;1.97;;;1.60;;
13641;SDS011;6894;52.196;9.904;2023-08-06T14:40:28;3.17;;;1.85;;
13641;SDS011;6894;52.196;9.904;2023-08-06T14:43:00;1.80;;;1.70;;
13641;SDS011;6894;52.196;9.904;2023-08-06T14:45:27;3.67;;;1.90;;
13641;SDS011;6894;52.196;9.904;2023-08-06T14:47:54;1.90;;;1.80;;
13641;SDS011;6894;52.196;9.904;2023-08-06T14:50:21;1.60;;;1.50;;
13641;SDS011;6894;52.196;9.904;2023-08-06T14:52:48;2.27;;;2.03;;
13641;SDS011;6894;52.196;9.904;2023-08-06T14:55:17;3.17;;;1.70;;
13641;SDS011;6894;52.196;9.904;2023-08-06T14:57:49;1.63;;;1.53;;
13641;SDS011;6894;52.196;9.904;2023-08-06T15:00:17;2.03;;;1.93;;
13641;SDS011;6894;52.196;9.904;2023-08-06T15:02:44;1.90;;;1.73;;